sensor_id;sensor_type;location;lat;lon;timestamp;P1;durP1;ratioP1;P2;durP2;ratioP2
2023;SDS011;1016;48.770;9.154;2023-12-20T00:00:58;148.23;;;138.13;;
2023;SDS011;1016;48.770;9.154;2023-12-20T00:03:24;146.07;;;135.93;;
2023;SDS011;1016;48.770;9.154;2023-12-20T00:05:50;146.33;;;136.13;;
2023;SDS011;1016;48.770;9.154;2023-12-20T00:08:16;168.93;;;157.93;;
2023;SDS011;1016;48.770;9.154;2023-12-20T00:10:43;167.38;;;156.27;;
2023;SDS011;1016;48.770;9.154;2023-12-20T00:13:09;179.05;;;167.65;;
2023;SDS011;1016;48.770;9.154;2023-12-20T00:15:35;172.25;;;160.93;;
2023;SDS011;1016;48.770;9.154;2023-12-20T00:18:00;169.20;;;158.10;;
2023;SDS011;1016;48.770;9.154;2023-12-20T00:20:27;171.37;;;159.93;;
2023;SDS011;1016;48.770;9.154;2023-12-20T00:22:54;193.23;;;181.23;;
2023;SDS011;1016;48.770;9.154;2023-12-20T00:25:23;190.55;;;178.65;;
2023;SDS011;1016;48.770;9.154;2023-12-20T00:27:49;235.63;;;222.10;;
2023;SDS011;1016;48.770;9.154;2023-12-20T00:30:15;203.00;;;190.60;;
2023;SDS011;1016;48.770;9.154;2023-12-20T00:32:40;264.73;;;250.07;;
2023;SDS011;1016;48.770;9.154;2023-12-20T00:35:11;231.23;;;217.70;;
2023;SDS011;1016;48.770;9.154;2023-12-20T00:37:38;242.70;;;228.95;;
2023;SDS011;1016;48.770;9.154;2023-12-20T00:40:03;221.52;;;208.25;;
2023;SDS011;1016;48.770;9.154;2023-12-20T00:42:29;281.67;;;266.25;;
2023;SDS011;1016;48.770;9.154;2023-12-20T00:44:55;233.15;;;219.40;;
2023;SDS011;1016;48.770;9.154;2023-12-20T00:47:21;246.17;;;232.17;;
2023;SDS011;1016;48.770;9.154;2023-12-20T00:49:47;258.48;;;243.60;;
2023;SDS011;1016;48.770;9.154;2023-12-20T00:52:13;254.43;;;239.93;;
2023;SDS011;1016;48.770;9.154;2023-12-20T00:54:39;283.58;;;267.17;;
2023;SDS011;1016;48.770;9.154;2023-12-20T00:57:06;324.45;;;306.98;;
2023;SDS011;1016;48.770;9.154;2023-12-20T00:59:31;315.08;;;297.75;;
2023;SDS011;1016;48.770;9.154;2023-12-20T01:01:57;368.10;;;348.00;;
2023;SDS011;1016;48.770;9.154;2023-12-20T01:04:23;441.40;;;417.52;;
2023;SDS011;1016;48.770;9.154;2023-12-20T01:06:49;379.23;;;358.48;;
2023;SDS011;1016;48.770;9.154;2023-12-20T01:09:15;433.63;;;409.50;;
2023;SDS011;1016;48.770;9.154;2023-12-20T01:11:40;429.35;;;405.58;;
2023;SDS011;1016;48.770;9.154;2023-12-20T01:14:06;452.37;;;427.87;;
2023;SDS011;1016;48.770;9.154;2023-12-20T01:16:31;584.40;;;550.57;;
2023;SDS011;1016;48.770;9.154;2023-12-20T01:18:57;613.35;;;577.72;;
2023;SDS011;1016;48.770;9.154;2023-12-20T01:21:22;612.73;;;575.93;;
2023;SDS011;1016;48.770;9.154;2023-12-20T01:23:48;608.47;;;572.25;;
2023;SDS011;1016;48.770;9.154;2023-12-20T01:26:14;627.00;;;587.70;;
2023;SDS011;1016;48.770;9.154;2023-12-20T01:28:40;712.85;;;667.22;;
2023;SDS011;1016;48.770;9.154;2023-12-20T01:31:05;689.10;;;644.50;;
2023;SDS011;1016;48.770;9.154;2023-12-20T01:33:31;699.53;;;654.87;;
2023;SDS011;1016;48.770;9.154;2023-12-20T01:35:56;731.20;;;682.67;;
2023;SDS011;1016;48.770;9.154;2023-12-20T01:38:22;753.97;;;702.53;;
2023;SDS011;1016;48.770;9.154;2023-12-20T01:40:47;803.33;;;746.13;;
2023;SDS011;1016;48.770;9.154;2023-12-20T01:43:13;819.47;;;762.00;;
2023;SDS011;1016;48.770;9.154;2023-12-20T01:45:38;834.85;;;774.83;;
2023;SDS011;1016;48.770;9.154;2023-12-20T01:48:04;817.83;;;759.60;;
2023;SDS011;1016;48.770;9.154;2023-12-20T01:50:31;850.10;;;789.63;;
2023;SDS011;1016;48.770;9.154;2023-12-20T01:52:58;913.28;;;842.92;;
2023;SDS011;1016;48.770;9.154;2023-12-20T01:55:26;912.63;;;843.55;;
2023;SDS011;1016;48.770;9.154;2023-12-20T01:57:54;887.47;;;818.83;;
2023;SDS011;1016;48.770;9.154;2023-12-20T02:00:21;869.78;;;806.17;;
2023;SDS011;1016;48.770;9.154;2023-12-20T02:02:49;912.83;;;843.53;;
2023;SDS011;1016;48.770;9.154;2023-12-20T02:05:17;923.97;;;854.15;;
2023;SDS011;1016;48.770;9.154;2023-12-20T02:07:43;959.93;;;885.30;;
2023;SDS011;1016;48.770;9.154;2023-12-20T02:10:08;993.30;;;913.63;;
2023;SDS011;1016;48.770;9.154;2023-12-20T02:12:34;899.38;;;830.20;;
2023;SDS011;1016;48.770;9.154;2023-12-20T02:15:00;984.45;;;904.90;;
2023;SDS011;1016;48.770;9.154;2023-12-20T02:17:26;996.22;;;913.58;;
2023;SDS011;1016;48.770;9.154;2023-12-20T02:19:52;1005.22;;;921.38;;
2023;SDS011;1016;48.770;9.154;2023-12-20T02:22:18;1016.60;;;931.53;;
2023;SDS011;1016;48.770;9.154;2023-12-20T02:24:43;999.87;;;918.20;;
2023;SDS011;1016;48.770;9.154;2023-12-20T02:27:09;1055.45;;;965.95;;
2023;SDS011;1016;48.770;9.154;2023-12-20T02:29:35;1031.68;;;942.95;;
2023;SDS011;1016;48.770;9.154;2023-12-20T02:32:01;1092.82;;;993.65;;
2023;SDS011;1016;48.770;9.154;2023-12-20T02:34:27;1079.90;;;980.30;;
2023;SDS011;1016;48.770;9.154;2023-12-20T02:36:53;1132.73;;;999.90;;
2023;SDS011;1016;48.770;9.154;2023-12-20T02:39:19;1147.03;;;999.90;;
2023;SDS011;1016;48.770;9.154;2023-12-20T02:41:46;1128.20;;;999.90;;
2023;SDS011;1016;48.770;9.154;2023-12-20T02:44:12;1179.45;;;999.90;;
2023;SDS011;1016;48.770;9.154;2023-12-20T02:46:37;1171.83;;;999.90;;
2023;SDS011;1016;48.770;9.154;2023-12-20T02:49:03;1220.13;;;999.90;;
2023;SDS011;1016;48.770;9.154;2023-12-20T02:51:28;1178.03;;;999.90;;
2023;SDS011;1016;48.770;9.154;2023-12-20T02:53:54;1199.73;;;999.90;;
2023;SDS011;1016;48.770;9.154;2023-12-20T02:56:19;1245.85;;;999.90;;
2023;SDS011;1016;48.770;9.154;2023-12-20T02:58:45;1190.00;;;999.90;;
2023;SDS011;1016;48.770;9.154;2023-12-20T03:01:10;1221.90;;;999.90;;
2023;SDS011;1016;48.770;9.154;2023-12-20T03:03:36;1268.97;;;999.90;;
2023;SDS011;1016;48.770;9.154;2023-12-20T03:06:02;1260.70;;;999.90;;
2023;SDS011;1016;48.770;9.154;2023-12-20T03:08:27;1359.95;;;999.90;;
2023;SDS011;1016;48.770;9.154;2023-12-20T03:10:53;1339.37;;;999.90;;
2023;SDS011;1016;48.770;9.154;2023-12-20T03:13:18;1323.35;;;999.90;;
2023;SDS011;1016;48.770;9.154;2023-12-20T03:15:45;1313.53;;;999.90;;
2023;SDS011;1016;48.770;9.154;2023-12-20T03:18:11;1397.30;;;999.90;;
2023;SDS011;1016;48.770;9.154;2023-12-20T03:20:36;1382.93;;;999.90;;
2023;SDS011;1016;48.770;9.154;2023-12-20T03:23:02;1341.15;;;999.90;;
2023;SDS011;1016;48.770;9.154;2023-12-20T03:25:28;1301.43;;;999.90;;
2023;SDS011;1016;48.770;9.154;2023-12-20T03:27:54;1297.40;;;999.90;;
2023;SDS011;1016;48.770;9.154;2023-12-20T03:30:19;1205.83;;;999.90;;
2023;SDS011;1016;48.770;9.154;2023-12-20T03:32:45;1250.10;;;999.90;;
2023;SDS011;1016;48.770;9.154;2023-12-20T03:35:11;1244.70;;;999.90;;
2023;SDS011;1016;48.770;9.154;2023-12-20T03:37:37;1252.32;;;999.90;;
2023;SDS011;1016;48.770;9.154;2023-12-20T03:40:02;1257.50;;;999.90;;
2023;SDS011;1016;48.770;9.154;2023-12-20T03:42:28;1205.97;;;999.90;;
2023;SDS011;1016;48.770;9.154;2023-12-20T03:44:54;1203.85;;;999.90;;
2023;SDS011;1016;48.770;9.154;2023-12-20T03:47:19;1203.93;;;999.90;;
2023;SDS011;1016;48.770;9.154;2023-12-20T03:49:45;1181.33;;;999.90;;
2023;SDS011;1016;48.770;9.154;2023-12-20T03:52:10;1157.20;;;999.90;;
2023;SDS011;1016;48.770;9.154;2023-12-20T03:54:37;1179.07;;;999.90;;
2023;SDS011;1016;48.770;9.154;2023-12-20T03:57:02;1206.47;;;999.90;;
2023;SDS011;1016;48.770;9.154;2023-12-20T03:59:28;1212.40;;;999.90;;
2023;SDS011;1016;48.770;9.154;2023-12-20T04:01:54;1215.13;;;999.90;;
2023;SDS011;1016;48.770;9.154;2023-12-20T04:04:21;1165.83;;;999.90;;
2023;SDS011;1016;48.770;9.154;2023-12-20T04:06:47;1176.20;;;999.90;;
2023;SDS011;1016;48.770;9.154;2023-12-20T04:09:12;1219.57;;;999.90;;
2023;SDS011;1016;48.770;9.154;2023-12-20T04:11:38;1224.87;;;999.90;;
2023;SDS011;1016;48.770;9.154;2023-12-20T04:14:04;1183.35;;;999.90;;
2023;SDS011;1016;48.770;9.154;2023-12-20T04:16:32;1170.70;;;999.90;;
2023;SDS011;1016;48.770;9.154;2023-12-20T04:18:57;1191.82;;;999.90;;
2023;SDS011;1016;48.770;9.154;2023-12-20T04:21:23;1132.20;;;999.90;;
2023;SDS011;1016;48.770;9.154;2023-12-20T04:23:49;1145.30;;;999.90;;
2023;SDS011;1016;48.770;9.154;2023-12-20T04:26:14;1108.65;;;999.55;;
2023;SDS011;1016;48.770;9.154;2023-12-20T04:28:40;1160.53;;;999.90;;
2023;SDS011;1016;48.770;9.154;2023-12-20T04:31:06;1200.73;;;999.90;;
2023;SDS011;1016;48.770;9.154;2023-12-20T04:33:31;1154.57;;;999.90;;
2023;SDS011;1016;48.770;9.154;2023-12-20T04:35:57;1170.57;;;999.90;;
2023;SDS011;1016;48.770;9.154;2023-12-20T04:38:22;1124.60;;;999.90;;
2023;SDS011;1016;48.770;9.154;2023-12-20T04:40:48;1140.33;;;999.90;;
2023;SDS011;1016;48.770;9.154;2023-12-20T04:43:14;1117.50;;;999.90;;
2023;SDS011;1016;48.770;9.154;2023-12-20T04:45:39;1116.18;;;999.90;;
2023;SDS011;1016;48.770;9.154;2023-12-20T04:48:05;1088.17;;;992.07;;
2023;SDS011;1016;48.770;9.154;2023-12-20T04:50:31;1095.33;;;996.77;;
2023;SDS011;1016;48.770;9.154;2023-12-20T04:52:59;1085.45;;;987.80;;
2023;SDS011;1016;48.770;9.154;2023-12-20T04:55:25;1055.03;;;963.88;;
2023;SDS011;1016;48.770;9.154;2023-12-20T04:57:51;1059.50;;;966.53;;
2023;SDS011;1016;48.770;9.154;2023-12-20T05:00:17;1107.90;;;999.90;;
2023;SDS011;1016;48.770;9.154;2023-12-20T05:02:44;1064.60;;;971.97;;
2023;SDS011;1016;48.770;9.154;2023-12-20T05:05:09;1060.23;;;967.40;;
2023;SDS011;1016;48.770;9.154;2023-12-20T05:07:35;1100.43;;;999.90;;
2023;SDS011;1016;48.770;9.154;2023-12-20T05:10:01;1074.80;;;976.10;;
2023;SDS011;1016;48.770;9.154;2023-12-20T05:12:29;1078.15;;;978.28;;
2023;SDS011;1016;48.770;9.154;2023-12-20T05:14:55;1024.28;;;938.22;;
2023;SDS011;1016;48.770;9.154;2023-12-20T05:17:20;1092.50;;;992.97;;
2023;SDS011;1016;48.770;9.154;2023-12-20T05:19:46;1050.35;;;959.53;;
2023;SDS011;1016;48.770;9.154;2023-12-20T05:22:11;1075.00;;;978.90;;
2023;SDS011;1016;48.770;9.154;2023-12-20T05:24:37;1086.50;;;988.55;;
2023;SDS011;1016;48.770;9.154;2023-12-20T05:27:02;1126.50;;;999.90;;
2023;SDS011;1016;48.770;9.154;2023-12-20T05:29:28;1100.93;;;998.70;;
2023;SDS011;1016;48.770;9.154;2023-12-20T05:31:55;1094.32;;;992.03;;
2023;SDS011;1016;48.770;9.154;2023-12-20T05:34:20;1122.53;;;999.90;;
2023;SDS011;1016;48.770;9.154;2023-12-20T05:36:46;1098.10;;;998.60;;
2023;SDS011;1016;48.770;9.154;2023-12-20T05:39:11;1134.43;;;999.90;;
2023;SDS011;1016;48.770;9.154;2023-12-20T05:41:37;1103.60;;;998.20;;
2023;SDS011;1016;48.770;9.154;2023-12-20T05:44:02;1135.82;;;999.90;;
2023;SDS011;1016;48.770;9.154;2023-12-20T05:46:28;1091.07;;;993.77;;
2023;SDS011;1016;48.770;9.154;2023-12-20T05:48:54;1114.32;;;999.90;;
2023;SDS011;1016;48.770;9.154;2023-12-20T05:51:19;1135.07;;;999.90;;
2023;SDS011;1016;48.770;9.154;2023-12-20T05:53:45;1109.87;;;999.90;;
2023;SDS011;1016;48.770;9.154;2023-12-20T05:56:10;1117.32;;;999.90;;
2023;SDS011;1016;48.770;9.154;2023-12-20T05:58:36;1137.37;;;999.90;;
2023;SDS011;1016;48.770;9.154;2023-12-20T06:01:03;1115.55;;;999.90;;
2023;SDS011;1016;48.770;9.154;2023-12-20T06:03:29;1159.78;;;999.90;;
2023;SDS011;1016;48.770;9.154;2023-12-20T06:05:55;1164.37;;;999.90;;
2023;SDS011;1016;48.770;9.154;2023-12-20T06:08:20;1161.75;;;999.90;;
2023;SDS011;1016;48.770;9.154;2023-12-20T06:10:46;1162.00;;;999.90;;
2023;SDS011;1016;48.770;9.154;2023-12-20T06:13:12;1199.07;;;999.90;;
2023;SDS011;1016;48.770;9.154;2023-12-20T06:15:38;1182.45;;;999.90;;
2023;SDS011;1016;48.770;9.154;2023-12-20T06:18:05;1213.32;;;999.90;;
2023;SDS011;1016;48.770;9.154;2023-12-20T06:20:31;1186.68;;;999.90;;
2023;SDS011;1016;48.770;9.154;2023-12-20T06:22:57;1213.50;;;999.90;;
2023;SDS011;1016;48.770;9.154;2023-12-20T06:25:23;1186.30;;;999.90;;
2023;SDS011;1016;48.770;9.154;2023-12-20T06:27:50;1214.53;;;999.90;;
2023;SDS011;1016;48.770;9.154;2023-12-20T06:30:15;1212.97;;;999.90;;
2023;SDS011;1016;48.770;9.154;2023-12-20T06:32:42;1181.47;;;999.90;;
2023;SDS011;1016;48.770;9.154;2023-12-20T06:35:08;1236.40;;;999.90;;
2023;SDS011;1016;48.770;9.154;2023-12-20T06:37:34;1240.22;;;999.90;;
2023;SDS011;1016;48.770;9.154;2023-12-20T06:40:00;1252.83;;;999.90;;
2023;SDS011;1016;48.770;9.154;2023-12-20T06:42:26;1225.53;;;999.90;;
2023;SDS011;1016;48.770;9.154;2023-12-20T06:44:51;1230.40;;;999.90;;
2023;SDS011;1016;48.770;9.154;2023-12-20T06:47:17;1207.32;;;999.90;;
2023;SDS011;1016;48.770;9.154;2023-12-20T06:49:43;1268.38;;;999.90;;
2023;SDS011;1016;48.770;9.154;2023-12-20T06:52:09;1239.70;;;999.90;;
2023;SDS011;1016;48.770;9.154;2023-12-20T06:54:34;1250.17;;;999.90;;
2023;SDS011;1016;48.770;9.154;2023-12-20T06:57:00;1292.95;;;999.90;;
2023;SDS011;1016;48.770;9.154;2023-12-20T06:59:27;1275.10;;;999.90;;
2023;SDS011;1016;48.770;9.154;2023-12-20T07:01:53;1251.45;;;999.90;;
2023;SDS011;1016;48.770;9.154;2023-12-20T07:04:19;1292.27;;;999.90;;
2023;SDS011;1016;48.770;9.154;2023-12-20T07:06:45;1279.38;;;999.90;;
2023;SDS011;1016;48.770;9.154;2023-12-20T07:09:10;1241.43;;;999.90;;
2023;SDS011;1016;48.770;9.154;2023-12-20T07:11:38;1209.05;;;999.90;;
2023;SDS011;1016;48.770;9.154;2023-12-20T07:14:03;1234.50;;;999.90;;
2023;SDS011;1016;48.770;9.154;2023-12-20T07:16:29;1231.73;;;999.90;;
2023;SDS011;1016;48.770;9.154;2023-12-20T07:18:55;1303.13;;;999.90;;
2023;SDS011;1016;48.770;9.154;2023-12-20T07:21:21;1251.35;;;999.90;;
2023;SDS011;1016;48.770;9.154;2023-12-20T07:23:47;1246.43;;;999.90;;
2023;SDS011;1016;48.770;9.154;2023-12-20T07:26:13;1288.20;;;999.90;;
2023;SDS011;1016;48.770;9.154;2023-12-20T07:28:38;1280.72;;;999.90;;
2023;SDS011;1016;48.770;9.154;2023-12-20T07:31:05;1299.33;;;999.90;;
2023;SDS011;1016;48.770;9.154;2023-12-20T07:33:31;1245.77;;;999.90;;
2023;SDS011;1016;48.770;9.154;2023-12-20T07:35:56;1234.55;;;999.90;;
2023;SDS011;1016;48.770;9.154;2023-12-20T07:38:25;1219.15;;;999.90;;
2023;SDS011;1016;48.770;9.154;2023-12-20T07:40:50;1069.25;;;971.80;;
2023;SDS011;1016;48.770;9.154;2023-12-20T07:43:16;1141.33;;;999.90;;
2023;SDS011;1016;48.770;9.154;2023-12-20T07:45:41;1102.73;;;999.83;;
2023;SDS011;1016;48.770;9.154;2023-12-20T07:48:07;1056.20;;;962.35;;
2023;SDS011;1016;48.770;9.154;2023-12-20T07:50:33;1118.82;;;999.90;;
2023;SDS011;1016;48.770;9.154;2023-12-20T07:52:59;947.47;;;872.50;;
2023;SDS011;1016;48.770;9.154;2023-12-20T07:55:26;938.55;;;866.45;;
2023;SDS011;1016;48.770;9.154;2023-12-20T07:57:51;783.15;;;729.13;;
2023;SDS011;1016;48.770;9.154;2023-12-20T08:00:18;749.78;;;699.60;;
2023;SDS011;1016;48.770;9.154;2023-12-20T08:02:44;693.78;;;647.20;;
2023;SDS011;1016;48.770;9.154;2023-12-20T08:05:10;659.27;;;616.80;;
2023;SDS011;1016;48.770;9.154;2023-12-20T08:07:36;804.70;;;748.13;;
2023;SDS011;1016;48.770;9.154;2023-12-20T08:10:02;803.10;;;747.17;;
2023;SDS011;1016;48.770;9.154;2023-12-20T08:12:28;796.17;;;741.72;;
2023;SDS011;1016;48.770;9.154;2023-12-20T08:14:54;644.63;;;603.73;;
2023;SDS011;1016;48.770;9.154;2023-12-20T08:17:19;619.10;;;581.33;;
2023;SDS011;1016;48.770;9.154;2023-12-20T08:19:45;717.17;;;670.20;;
2023;SDS011;1016;48.770;9.154;2023-12-20T08:22:11;505.73;;;476.80;;
2023;SDS011;1016;48.770;9.154;2023-12-20T08:24:37;515.00;;;484.50;;
2023;SDS011;1016;48.770;9.154;2023-12-20T08:27:03;550.60;;;517.30;;
2023;SDS011;1016;48.770;9.154;2023-12-20T08:29:30;618.27;;;579.57;;
2023;SDS011;1016;48.770;9.154;2023-12-20T08:31:55;578.53;;;543.13;;
2023;SDS011;1016;48.770;9.154;2023-12-20T08:34:22;407.80;;;384.93;;
2023;SDS011;1016;48.770;9.154;2023-12-20T08:36:51;447.27;;;422.45;;
2023;SDS011;1016;48.770;9.154;2023-12-20T08:39:16;461.93;;;434.87;;
2023;SDS011;1016;48.770;9.154;2023-12-20T08:41:42;403.15;;;380.08;;
2023;SDS011;1016;48.770;9.154;2023-12-20T08:44:08;327.33;;;309.40;;
2023;SDS011;1016;48.770;9.154;2023-12-20T08:46:34;380.75;;;359.27;;
2023;SDS011;1016;48.770;9.154;2023-12-20T08:49:00;329.63;;;312.02;;
2023;SDS011;1016;48.770;9.154;2023-12-20T08:51:26;353.50;;;334.10;;
2023;SDS011;1016;48.770;9.154;2023-12-20T08:53:52;407.13;;;384.20;;
2023;SDS011;1016;48.770;9.154;2023-12-20T08:56:18;265.57;;;250.23;;
2023;SDS011;1016;48.770;9.154;2023-12-20T08:58:45;235.77;;;221.53;;
2023;SDS011;1016;48.770;9.154;2023-12-20T09:01:11;282.37;;;266.27;;
2023;SDS011;1016;48.770;9.154;2023-12-20T09:03:37;300.20;;;283.40;;
2023;SDS011;1016;48.770;9.154;2023-12-20T09:06:03;296.10;;;279.60;;
2023;SDS011;1016;48.770;9.154;2023-12-20T09:08:30;297.75;;;281.10;;
2023;SDS011;1016;48.770;9.154;2023-12-20T09:10:56;325.33;;;307.90;;
2023;SDS011;1016;48.770;9.154;2023-12-20T09:13:21;265.88;;;250.82;;
2023;SDS011;1016;48.770;9.154;2023-12-20T09:15:52;330.23;;;312.15;;
2023;SDS011;1016;48.770;9.154;2023-12-20T09:18:21;358.97;;;339.33;;
2023;SDS011;1016;48.770;9.154;2023-12-20T09:20:46;263.67;;;248.70;;
2023;SDS011;1016;48.770;9.154;2023-12-20T09:23:12;259.23;;;244.57;;
2023;SDS011;1016;48.770;9.154;2023-12-20T09:25:37;227.20;;;213.23;;
2023;SDS011;1016;48.770;9.154;2023-12-20T09:28:03;259.13;;;244.48;;
2023;SDS011;1016;48.770;9.154;2023-12-20T09:30:29;209.55;;;196.27;;
2023;SDS011;1016;48.770;9.154;2023-12-20T09:32:55;208.70;;;195.70;;
2023;SDS011;1016;48.770;9.154;2023-12-20T09:38:05;236.07;;;221.80;;
2023;SDS011;1016;48.770;9.154;2023-12-20T09:40:31;213.30;;;200.47;;
2023;SDS011;1016;48.770;9.154;2023-12-20T09:43:02;197.57;;;184.70;;
2023;SDS011;1016;48.770;9.154;2023-12-20T09:45:29;217.85;;;204.05;;
2023;SDS011;1016;48.770;9.154;2023-12-20T09:47:56;199.38;;;186.77;;
2023;SDS011;1016;48.770;9.154;2023-12-20T09:50:23;108.00;;;99.25;;
2023;SDS011;1016;48.770;9.154;2023-12-20T09:52:52;106.53;;;97.63;;
2023;SDS011;1016;48.770;9.154;2023-12-20T09:55:19;96.57;;;88.27;;
2023;SDS011;1016;48.770;9.154;2023-12-20T09:57:45;135.52;;;125.47;;
2023;SDS011;1016;48.770;9.154;2023-12-20T10:00:12;45.90;;;14.47;;
2023;SDS011;1016;48.770;9.154;2023-12-20T10:02:40;77.05;;;69.57;;
2023;SDS011;1016;48.770;9.154;2023-12-20T10:05:11;43.45;;;7.55;;
2023;SDS011;1016;48.770;9.154;2023-12-20T10:07:41;43.28;;;6.65;;
2023;SDS011;1016;48.770;9.154;2023-12-20T10:10:07;42.50;;;6.33;;
2023;SDS011;1016;48.770;9.154;2023-12-20T10:12:33;146.40;;;135.77;;
2023;SDS011;1016;48.770;9.154;2023-12-20T10:14:59;45.67;;;12.93;;
2023;SDS011;1016;48.770;9.154;2023-12-20T10:17:25;55.60;;;34.60;;
2023;SDS011;1016;48.770;9.154;2023-12-20T10:19:54;40.50;;;4.25;;
2023;SDS011;1016;48.770;9.154;2023-12-20T10:22:21;40.03;;;4.30;;
2023;SDS011;1016;48.770;9.154;2023-12-20T10:24:46;41.83;;;6.80;;
2023;SDS011;1016;48.770;9.154;2023-12-20T10:27:12;48.13;;;20.13;;
2023;SDS011;1016;48.770;9.154;2023-12-20T10:29:38;68.60;;;61.40;;
2023;SDS011;1016;48.770;9.154;2023-12-20T10:32:23;47.40;;;13.43;;
2023;SDS011;1016;48.770;9.154;2023-12-20T10:34:53;51.47;;;27.50;;
2023;SDS011;1016;48.770;9.154;2023-12-20T10:37:20;42.60;;;5.20;;
2023;SDS011;1016;48.770;9.154;2023-12-20T10:39:55;65.63;;;57.90;;
2023;SDS011;1016;48.770;9.154;2023-12-20T10:42:22;52.55;;;27.95;;
2023;SDS011;1016;48.770;9.154;2023-12-20T10:44:51;44.50;;;4.95;;
2023;SDS011;1016;48.770;9.154;2023-12-20T10:47:20;42.75;;;8.32;;
2023;SDS011;1016;48.770;9.154;2023-12-20T10:49:47;44.03;;;7.57;;
2023;SDS011;1016;48.770;9.154;2023-12-20T10:52:14;52.55;;;30.98;;
2023;SDS011;1016;48.770;9.154;2023-12-20T10:54:41;48.87;;;19.00;;
2023;SDS011;1016;48.770;9.154;2023-12-20T10:57:07;56.10;;;39.27;;
2023;SDS011;1016;48.770;9.154;2023-12-20T10:59:33;43.90;;;7.45;;
2023;SDS011;1016;48.770;9.154;2023-12-20T11:02:02;66.43;;;58.97;;
2023;SDS011;1016;48.770;9.154;2023-12-20T11:07:25;43.13;;;7.85;;
2023;SDS011;1016;48.770;9.154;2023-12-20T11:10:25;42.10;;;5.55;;
2023;SDS011;1016;48.770;9.154;2023-12-20T11:13:05;42.72;;;7.25;;
2023;SDS011;1016;48.770;9.154;2023-12-20T11:15:35;40.50;;;4.30;;
2023;SDS011;1016;48.770;9.154;2023-12-20T11:18:02;47.70;;;15.18;;
2023;SDS011;1016;48.770;9.154;2023-12-20T11:20:39;41.20;;;4.00;;
2023;SDS011;1016;48.770;9.154;2023-12-20T11:23:06;42.92;;;4.88;;
2023;SDS011;1016;48.770;9.154;2023-12-20T11:25:51;40.88;;;4.22;;
2023;SDS011;1016;48.770;9.154;2023-12-20T11:28:22;38.20;;;4.18;;
2023;SDS011;1016;48.770;9.154;2023-12-20T11:33:24;42.42;;;4.97;;
2023;SDS011;1016;48.770;9.154;2023-12-20T11:35:51;40.45;;;4.50;;
2023;SDS011;1016;48.770;9.154;2023-12-20T11:38:19;39.33;;;4.30;;
2023;SDS011;1016;48.770;9.154;2023-12-20T11:40:47;38.63;;;4.72;;
2023;SDS011;1016;48.770;9.154;2023-12-20T11:43:29;36.47;;;3.40;;
2023;SDS011;1016;48.770;9.154;2023-12-20T11:45:56;37.10;;;2.80;;
2023;SDS011;1016;48.770;9.154;2023-12-20T11:48:31;36.25;;;3.08;;
2023;SDS011;1016;48.770;9.154;2023-12-20T11:50:58;37.70;;;3.38;;
2023;SDS011;1016;48.770;9.154;2023-12-20T11:53:24;37.70;;;4.10;;
2023;SDS011;1016;48.770;9.154;2023-12-20T11:55:50;37.17;;;3.95;;
2023;SDS011;1016;48.770;9.154;2023-12-20T11:58:15;35.90;;;3.17;;
2023;SDS011;1016;48.770;9.154;2023-12-20T12:00:42;39.72;;;4.68;;
2023;SDS011;1016;48.770;9.154;2023-12-20T12:03:14;40.08;;;4.30;;
2023;SDS011;1016;48.770;9.154;2023-12-20T12:05:40;35.17;;;2.67;;
2023;SDS011;1016;48.770;9.154;2023-12-20T12:08:05;37.92;;;4.38;;
2023;SDS011;1016;48.770;9.154;2023-12-20T12:10:32;38.13;;;3.97;;
2023;SDS011;1016;48.770;9.154;2023-12-20T12:12:58;34.03;;;2.55;;
2023;SDS011;1016;48.770;9.154;2023-12-20T12:15:25;37.15;;;2.70;;
2023;SDS011;1016;48.770;9.154;2023-12-20T12:17:54;35.70;;;3.30;;
2023;SDS011;1016;48.770;9.154;2023-12-20T12:20:20;36.03;;;3.10;;
2023;SDS011;1016;48.770;9.154;2023-12-20T12:22:46;35.87;;;3.00;;
2023;SDS011;1016;48.770;9.154;2023-12-20T12:25:23;37.17;;;3.10;;
2023;SDS011;1016;48.770;9.154;2023-12-20T12:27:50;35.55;;;2.88;;
2023;SDS011;1016;48.770;9.154;2023-12-20T12:30:16;36.87;;;4.03;;
2023;SDS011;1016;48.770;9.154;2023-12-20T12:32:43;36.60;;;3.67;;
2023;SDS011;1016;48.770;9.154;2023-12-20T12:35:09;35.40;;;3.00;;
2023;SDS011;1016;48.770;9.154;2023-12-20T12:37:35;35.63;;;2.70;;
2023;SDS011;1016;48.770;9.154;2023-12-20T12:40:04;34.80;;;2.80;;
2023;SDS011;1016;48.770;9.154;2023-12-20T12:42:36;36.72;;;3.42;;
2023;SDS011;1016;48.770;9.154;2023-12-20T12:45:02;37.42;;;3.10;;
2023;SDS011;1016;48.770;9.154;2023-12-20T12:47:29;35.40;;;2.80;;
2023;SDS011;1016;48.770;9.154;2023-12-20T12:49:55;37.27;;;3.80;;
2023;SDS011;1016;48.770;9.154;2023-12-20T12:52:21;35.10;;;2.60;;
2023;SDS011;1016;48.770;9.154;2023-12-20T12:54:47;35.85;;;2.70;;
2023;SDS011;1016;48.770;9.154;2023-12-20T12:57:13;35.90;;;3.10;;
2023;SDS011;1016;48.770;9.154;2023-12-20T12:59:41;34.95;;;2.72;;
2023;SDS011;1016;48.770;9.154;2023-12-20T13:02:07;34.80;;;2.72;;
2023;SDS011;1016;48.770;9.154;2023-12-20T13:04:34;36.15;;;3.22;;
2023;SDS011;1016;48.770;9.154;2023-12-20T13:07:02;35.20;;;2.80;;
2023;SDS011;1016;48.770;9.154;2023-12-20T13:09:27;36.00;;;3.33;;
2023;SDS011;1016;48.770;9.154;2023-12-20T13:11:53;35.05;;;2.45;;
2023;SDS011;1016;48.770;9.154;2023-12-20T13:14:19;35.67;;;2.90;;
2023;SDS011;1016;48.770;9.154;2023-12-20T13:16:44;38.30;;;3.63;;
2023;SDS011;1016;48.770;9.154;2023-12-20T13:19:10;36.95;;;3.40;;
2023;SDS011;1016;48.770;9.154;2023-12-20T13:21:36;36.95;;;3.90;;
2023;SDS011;1016;48.770;9.154;2023-12-20T13:24:02;36.42;;;3.75;;
2023;SDS011;1016;48.770;9.154;2023-12-20T13:26:28;34.38;;;2.50;;
2023;SDS011;1016;48.770;9.154;2023-12-20T13:28:54;34.70;;;2.70;;
2023;SDS011;1016;48.770;9.154;2023-12-20T13:31:23;35.47;;;2.80;;
2023;SDS011;1016;48.770;9.154;2023-12-20T13:33:49;33.10;;;2.28;;
2023;SDS011;1016;48.770;9.154;2023-12-20T13:36:14;65.33;;;5.90;;
2023;SDS011;1016;48.770;9.154;2023-12-20T13:38:40;158.37;;;14.90;;
2023;SDS011;1016;48.770;9.154;2023-12-20T13:41:06;128.70;;;13.07;;
2023;SDS011;1016;48.770;9.154;2023-12-20T13:43:31;45.88;;;4.75;;
2023;SDS011;1016;48.770;9.154;2023-12-20T13:45:58;40.70;;;3.97;;
2023;SDS011;1016;48.770;9.154;2023-12-20T13:48:25;38.20;;;2.90;;
2023;SDS011;1016;48.770;9.154;2023-12-20T13:50:50;43.58;;;5.10;;
2023;SDS011;1016;48.770;9.154;2023-12-20T13:53:16;38.50;;;4.00;;
2023;SDS011;1016;48.770;9.154;2023-12-20T13:55:42;35.65;;;2.85;;
2023;SDS011;1016;48.770;9.154;2023-12-20T13:58:07;37.47;;;3.50;;
2023;SDS011;1016;48.770;9.154;2023-12-20T14:00:35;38.70;;;3.53;;
2023;SDS011;1016;48.770;9.154;2023-12-20T14:03:01;39.55;;;4.80;;
2023;SDS011;1016;48.770;9.154;2023-12-20T14:05:28;37.08;;;3.78;;
2023;SDS011;1016;48.770;9.154;2023-12-20T14:07:53;36.25;;;3.10;;
2023;SDS011;1016;48.770;9.154;2023-12-20T14:10:19;36.47;;;2.90;;
2023;SDS011;1016;48.770;9.154;2023-12-20T14:12:45;36.57;;;3.10;;
2023;SDS011;1016;48.770;9.154;2023-12-20T14:15:11;37.67;;;4.03;;
2023;SDS011;1016;48.770;9.154;2023-12-20T14:17:38;38.50;;;4.10;;
2023;SDS011;1016;48.770;9.154;2023-12-20T14:20:05;37.75;;;3.70;;
2023;SDS011;1016;48.770;9.154;2023-12-20T14:22:34;38.60;;;3.80;;
2023;SDS011;1016;48.770;9.154;2023-12-20T14:25:02;37.63;;;3.67;;
2023;SDS011;1016;48.770;9.154;2023-12-20T14:27:28;36.10;;;3.43;;
2023;SDS011;1016;48.770;9.154;2023-12-20T14:29:54;36.57;;;2.73;;
2023;SDS011;1016;48.770;9.154;2023-12-20T14:32:22;36.05;;;3.15;;